Nearby METAR Reports

 

EGDR - Culdrose (navy), United Kingdom
Distance from station: S 10mi, 17km
Updated: 26/09/2021 23:50
Mostly cloudy
Mostly cloudy
 Wind from S
Wind: S 21 mph , 33 km/h
Temperature: 17°C
Dew Point: 16°C
Humidity: 94%
Barometer: 1004 hPa
Clouds: Mostly cloudy
Visibility: 6 miles , 10 km
Cloud details: Mostly cloudy 122 m
Mostly cloudy 335 m
2021/09/26 22:50 EGDR 262250Z AUTO 19018KT 9999 // BKN004/// BKN011/// 17/16 Q1004
EGHQ - Newquay, United Kingdom
Distance from station: NE 17mi, 27km
Updated: 26/09/2021 23:50

 Wind from S
Wind: S 24 mph , 39 km/h
Visibility: 6 miles , 10 km
2021/09/26 22:50 EGHQ 262250Z AUTO 17021KT 9999 4500 +RA BKN007/// 17/16 Q1004
 
EGHC - Lands End, United Kingdom
Distance from station: WSW 22mi, 35km
Updated: 25/09/2021 17:50
NOT Current
Few Clouds
Few Clouds
 Wind from SE
Wind: SE 12 mph , 19 km/h
Temperature: 16°C
Dew Point: 13°C
Humidity: 83%
Barometer: 1011 hPa
Clouds: Few Clouds
Visibility: 6 miles , 10 km
Cloud details: Few Clouds 305 m
2021/09/25 16:50 EGHC 251650Z 14010KT 9999 FEW010 16/13 Q1011